ダッカ の空港の天気 - METARとTAF

シャージャラル国際空港(ダッカ) ( VGHS / DAC ) - バングラデシュ ダッカ
飛行場実況気象(Metar)
観測時間06/18 05:30 BDT (06/17 23:30 UTC)
風向・風速南東 3m/s
視程3200m
天気現象雷雨
全天の8割程度の雲 雲底高度 300m
少しの雲 雲底高度 760m
全天の8割程度の雲 雲底高度 3050m
気温26℃
湿度84%
気圧1000hPa
METARVGHS 172330Z 14005KT 3200 TSRA BKN010 FEW025CB BKN100 26/23 Q1000 TEMPO +TSRA
過去の天気等 Google飛行場航空写真 Wunderground天気予報

過去48時間のMETAR

飛行場予報(TAF)
発表時間: 6/18 05:00 BDT (6/17 23:00 UTC)
予報対象時間: 18日6時 BDT ~ 19日12時 BDT
風向・風速南 5m/s
視程3500m
天気現象煙霧
全天の4割程度の雲 雲底高度 370m
全天の8割程度の雲 雲底高度 3050m
18日9時 BDT ~ 18日11時 BDT に徐々に
風向・風速南東 4m/s
視程4000m
天気現象煙霧
全天の4割程度の雲 雲底高度 460m
全天の8割程度の雲 雲底高度 3050m
18日18時 BDT ~ 19日6時 BDT に一時的に
風向・風速西 13m/s
視程2000m
TAF VGHS 172300Z 1800/1906 18010KT 3500 HZ SCT012 BKN100
BECMG 1803/1805 14008KT 4000 HZ SCT015 BKN100
TEMPO 1812/1824 28025KT 2000 RA/TSRA BKN008 FEW025CB OVC090